sensor_id;sensor_type;location;lat;lon;timestamp;temperature;humidity
22436;DHT22;11385;50.822;4.324;2022-09-09T00:04:26;16.10;99.90
22436;DHT22;11385;50.822;4.324;2022-09-09T00:07:05;16.00;99.90
22436;DHT22;11385;50.822;4.324;2022-09-09T00:09:56;15.90;99.90
22436;DHT22;11385;50.822;4.324;2022-09-09T00:12:44;15.90;99.90
22436;DHT22;11385;50.822;4.324;2022-09-09T00:15:18;15.90;99.90
22436;DHT22;11385;50.822;4.324;2022-09-09T00:17:53;16.00;99.90
22436;DHT22;11385;50.822;4.324;2022-09-09T00:23:23;16.00;99.90
22436;DHT22;11385;50.822;4.324;2022-09-09T00:25:59;15.90;99.90
22436;DHT22;11385;50.822;4.324;2022-09-09T00:28:27;16.00;99.90
22436;DHT22;11385;50.822;4.324;2022-09-09T00:31:08;16.10;99.90
22436;DHT22;11385;50.822;4.324;2022-09-09T00:33:31;16.10;99.90
22436;DHT22;11385;50.822;4.324;2022-09-09T00:35:58;16.00;99.90
22436;DHT22;11385;50.822;4.324;2022-09-09T00:38:33;16.10;99.90
22436;DHT22;11385;50.822;4.324;2022-09-09T00:41:06;16.10;99.90
22436;DHT22;11385;50.822;4.324;2022-09-09T00:43:35;16.10;99.90
22436;DHT22;11385;50.822;4.324;2022-09-09T00:48:52;16.10;99.90
22436;DHT22;11385;50.822;4.324;2022-09-09T00:51:24;16.00;99.90
22436;DHT22;11385;50.822;4.324;2022-09-09T00:56:43;15.90;99.90
22436;DHT22;11385;50.822;4.324;2022-09-09T00:59:29;15.90;99.90
22436;DHT22;11385;50.822;4.324;2022-09-09T01:01:56;16.00;99.90
22436;DHT22;11385;50.822;4.324;2022-09-09T01:04:28;16.00;99.90
22436;DHT22;11385;50.822;4.324;2022-09-09T01:07:00;15.90;99.90
22436;DHT22;11385;50.822;4.324;2022-09-09T01:12:24;15.90;99.90
22436;DHT22;11385;50.822;4.324;2022-09-09T01:14:49;16.00;99.90
22436;DHT22;11385;50.822;4.324;2022-09-09T01:17:21;16.00;99.90
22436;DHT22;11385;50.822;4.324;2022-09-09T01:20:02;16.00;99.90
22436;DHT22;11385;50.822;4.324;2022-09-09T01:28:04;16.10;99.90
22436;DHT22;11385;50.822;4.324;2022-09-09T01:30:33;16.00;99.90
22436;DHT22;11385;50.822;4.324;2022-09-09T01:33:00;16.00;99.90
22436;DHT22;11385;50.822;4.324;2022-09-09T01:35:37;15.90;99.90
22436;DHT22;11385;50.822;4.324;2022-09-09T01:38:01;15.90;99.90
22436;DHT22;11385;50.822;4.324;2022-09-09T01:40:28;15.80;99.90
22436;DHT22;11385;50.822;4.324;2022-09-09T01:42:54;15.80;99.90
22436;DHT22;11385;50.822;4.324;2022-09-09T01:45:23;15.90;99.90
22436;DHT22;11385;50.822;4.324;2022-09-09T01:47:52;15.80;99.90
22436;DHT22;11385;50.822;4.324;2022-09-09T01:50:20;15.80;99.90
22436;DHT22;11385;50.822;4.324;2022-09-09T01:52:50;16.00;99.90
22436;DHT22;11385;50.822;4.324;2022-09-09T01:55:23;15.80;99.90
22436;DHT22;11385;50.822;4.324;2022-09-09T01:57:56;15.90;99.90
22436;DHT22;11385;50.822;4.324;2022-09-09T02:00:20;15.80;99.90
22436;DHT22;11385;50.822;4.324;2022-09-09T02:03:27;15.90;99.90
22436;DHT22;11385;50.822;4.324;2022-09-09T02:05:43;16.00;99.90
22436;DHT22;11385;50.822;4.324;2022-09-09T02:08:16;15.90;99.90
22436;DHT22;11385;50.822;4.324;2022-09-09T02:10:56;15.80;99.90
22436;DHT22;11385;50.822;4.324;2022-09-09T02:13:25;15.70;99.90
22436;DHT22;11385;50.822;4.324;2022-09-09T02:15:56;15.70;99.90
22436;DHT22;11385;50.822;4.324;2022-09-09T02:18:27;15.80;99.90
22436;DHT22;11385;50.822;4.324;2022-09-09T02:20:56;15.80;99.90
22436;DHT22;11385;50.822;4.324;2022-09-09T02:23:24;15.90;99.90
22436;DHT22;11385;50.822;4.324;2022-09-09T02:25:52;16.00;99.90
22436;DHT22;11385;50.822;4.324;2022-09-09T02:28:21;15.90;99.90
22436;DHT22;11385;50.822;4.324;2022-09-09T02:30:50;15.90;99.90
22436;DHT22;11385;50.822;4.324;2022-09-09T02:33:22;16.00;99.90
22436;DHT22;11385;50.822;4.324;2022-09-09T02:35:51;16.00;99.90
22436;DHT22;11385;50.822;4.324;2022-09-09T02:38:20;16.00;99.90
22436;DHT22;11385;50.822;4.324;2022-09-09T02:40:48;16.10;99.90
22436;DHT22;11385;50.822;4.324;2022-09-09T02:43:15;16.10;99.90
22436;DHT22;11385;50.822;4.324;2022-09-09T02:45:48;16.00;99.90
22436;DHT22;11385;50.822;4.324;2022-09-09T02:48:17;15.90;99.90
22436;DHT22;11385;50.822;4.324;2022-09-09T02:50:54;15.90;99.90
22436;DHT22;11385;50.822;4.324;2022-09-09T02:53:43;16.00;99.90
22436;DHT22;11385;50.822;4.324;2022-09-09T02:56:14;16.00;99.90
22436;DHT22;11385;50.822;4.324;2022-09-09T02:58:42;16.00;99.90
22436;DHT22;11385;50.822;4.324;2022-09-09T03:01:09;16.10;99.90
22436;DHT22;11385;50.822;4.324;2022-09-09T03:03:35;16.20;99.90
22436;DHT22;11385;50.822;4.324;2022-09-09T03:06:02;16.20;99.90
22436;DHT22;11385;50.822;4.324;2022-09-09T03:08:29;16.10;99.90
22436;DHT22;11385;50.822;4.324;2022-09-09T03:10:58;16.20;99.90
22436;DHT22;11385;50.822;4.324;2022-09-09T03:13:27;16.30;99.90
22436;DHT22;11385;50.822;4.324;2022-09-09T03:15:54;16.20;99.90
22436;DHT22;11385;50.822;4.324;2022-09-09T03:18:20;16.10;99.90
22436;DHT22;11385;50.822;4.324;2022-09-09T03:20:47;15.80;99.90
22436;DHT22;11385;50.822;4.324;2022-09-09T03:23:14;15.90;99.90
22436;DHT22;11385;50.822;4.324;2022-09-09T03:25:46;15.80;99.90
22436;DHT22;11385;50.822;4.324;2022-09-09T03:28:14;15.70;99.90
22436;DHT22;11385;50.822;4.324;2022-09-09T03:30:41;15.70;99.90
22436;DHT22;11385;50.822;4.324;2022-09-09T03:33:07;15.80;99.90
22436;DHT22;11385;50.822;4.324;2022-09-09T03:35:34;15.80;99.90
22436;DHT22;11385;50.822;4.324;2022-09-09T03:38:01;16.00;99.90
22436;DHT22;11385;50.822;4.324;2022-09-09T03:40:27;16.10;99.90
22436;DHT22;11385;50.822;4.324;2022-09-09T03:42:54;16.10;99.90
22436;DHT22;11385;50.822;4.324;2022-09-09T03:45:21;16.00;99.90
22436;DHT22;11385;50.822;4.324;2022-09-09T03:47:47;15.80;99.90
22436;DHT22;11385;50.822;4.324;2022-09-09T03:50:14;15.70;99.90
22436;DHT22;11385;50.822;4.324;2022-09-09T03:52:41;15.80;99.90
22436;DHT22;11385;50.822;4.324;2022-09-09T03:55:08;15.80;99.90
22436;DHT22;11385;50.822;4.324;2022-09-09T03:57:34;15.90;99.90
22436;DHT22;11385;50.822;4.324;2022-09-09T04:00:04;15.90;99.90
22436;DHT22;11385;50.822;4.324;2022-09-09T04:02:31;15.90;99.90
22436;DHT22;11385;50.822;4.324;2022-09-09T04:04:58;15.90;99.90
22436;DHT22;11385;50.822;4.324;2022-09-09T04:07:26;15.90;99.90
22436;DHT22;11385;50.822;4.324;2022-09-09T04:09:54;15.80;99.90
22436;DHT22;11385;50.822;4.324;2022-09-09T04:12:21;16.10;99.90
22436;DHT22;11385;50.822;4.324;2022-09-09T04:14:48;16.10;99.90
22436;DHT22;11385;50.822;4.324;2022-09-09T04:17:16;16.00;99.90
22436;DHT22;11385;50.822;4.324;2022-09-09T04:19:43;15.80;99.90
22436;DHT22;11385;50.822;4.324;2022-09-09T04:22:09;15.90;99.90
22436;DHT22;11385;50.822;4.324;2022-09-09T04:24:36;16.00;99.90
22436;DHT22;11385;50.822;4.324;2022-09-09T04:27:03;16.00;99.90
22436;DHT22;11385;50.822;4.324;2022-09-09T04:29:30;15.80;99.90
22436;DHT22;11385;50.822;4.324;2022-09-09T04:31:57;15.90;99.90
22436;DHT22;11385;50.822;4.324;2022-09-09T04:34:23;16.00;99.90
22436;DHT22;11385;50.822;4.324;2022-09-09T04:36:50;15.80;99.90
22436;DHT22;11385;50.822;4.324;2022-09-09T04:39:18;15.80;99.90
22436;DHT22;11385;50.822;4.324;2022-09-09T04:41:46;15.80;99.90
22436;DHT22;11385;50.822;4.324;2022-09-09T04:44:13;15.80;99.90
22436;DHT22;11385;50.822;4.324;2022-09-09T04:46:39;15.90;99.90
22436;DHT22;11385;50.822;4.324;2022-09-09T04:49:07;16.00;99.90
22436;DHT22;11385;50.822;4.324;2022-09-09T04:51:34;16.00;99.90
22436;DHT22;11385;50.822;4.324;2022-09-09T04:54:00;16.10;99.90
22436;DHT22;11385;50.822;4.324;2022-09-09T04:56:27;16.10;99.90
22436;DHT22;11385;50.822;4.324;2022-09-09T04:58:54;16.00;99.90
22436;DHT22;11385;50.822;4.324;2022-09-09T05:01:22;15.90;99.90
22436;DHT22;11385;50.822;4.324;2022-09-09T05:03:50;15.90;99.90
22436;DHT22;11385;50.822;4.324;2022-09-09T05:06:21;15.90;99.90
22436;DHT22;11385;50.822;4.324;2022-09-09T05:08:48;15.70;99.90
22436;DHT22;11385;50.822;4.324;2022-09-09T05:11:20;15.80;99.90
22436;DHT22;11385;50.822;4.324;2022-09-09T05:13:50;15.80;99.90
22436;DHT22;11385;50.822;4.324;2022-09-09T05:16:18;16.00;99.90
22436;DHT22;11385;50.822;4.324;2022-09-09T05:18:45;16.00;99.90
22436;DHT22;11385;50.822;4.324;2022-09-09T05:21:14;16.10;99.90
22436;DHT22;11385;50.822;4.324;2022-09-09T05:23:41;16.10;99.90
22436;DHT22;11385;50.822;4.324;2022-09-09T05:26:11;16.20;99.90
22436;DHT22;11385;50.822;4.324;2022-09-09T05:28:38;16.30;99.90
22436;DHT22;11385;50.822;4.324;2022-09-09T05:31:06;16.30;99.90
22436;DHT22;11385;50.822;4.324;2022-09-09T05:33:35;16.20;99.90
22436;DHT22;11385;50.822;4.324;2022-09-09T05:36:04;16.10;99.90
22436;DHT22;11385;50.822;4.324;2022-09-09T05:38:32;16.10;99.90
22436;DHT22;11385;50.822;4.324;2022-09-09T05:41:00;16.20;99.90
22436;DHT22;11385;50.822;4.324;2022-09-09T05:43:28;16.10;99.90
22436;DHT22;11385;50.822;4.324;2022-09-09T05:46:13;16.10;99.90
22436;DHT22;11385;50.822;4.324;2022-09-09T05:48:42;16.20;99.90
22436;DHT22;11385;50.822;4.324;2022-09-09T05:51:10;16.20;99.90
22436;DHT22;11385;50.822;4.324;2022-09-09T05:53:38;16.20;99.90
22436;DHT22;11385;50.822;4.324;2022-09-09T05:56:08;16.20;99.90
22436;DHT22;11385;50.822;4.324;2022-09-09T05:58:36;16.20;99.90
22436;DHT22;11385;50.822;4.324;2022-09-09T06:01:07;16.30;99.90
22436;DHT22;11385;50.822;4.324;2022-09-09T06:03:35;16.20;99.90
22436;DHT22;11385;50.822;4.324;2022-09-09T06:06:04;16.30;99.90
22436;DHT22;11385;50.822;4.324;2022-09-09T06:08:34;16.30;99.90
22436;DHT22;11385;50.822;4.324;2022-09-09T06:11:07;16.30;99.90
22436;DHT22;11385;50.822;4.324;2022-09-09T06:13:35;16.50;99.90
22436;DHT22;11385;50.822;4.324;2022-09-09T06:16:07;16.60;99.90
22436;DHT22;11385;50.822;4.324;2022-09-09T06:18:34;16.80;99.90
22436;DHT22;11385;50.822;4.324;2022-09-09T06:21:03;16.80;99.90
22436;DHT22;11385;50.822;4.324;2022-09-09T06:23:30;16.70;99.90
22436;DHT22;11385;50.822;4.324;2022-09-09T06:26:11;16.50;99.90
22436;DHT22;11385;50.822;4.324;2022-09-09T06:28:38;16.50;99.90
22436;DHT22;11385;50.822;4.324;2022-09-09T06:31:08;16.50;99.90
22436;DHT22;11385;50.822;4.324;2022-09-09T06:33:36;16.50;99.90
22436;DHT22;11385;50.822;4.324;2022-09-09T06:36:05;16.60;99.90
22436;DHT22;11385;50.822;4.324;2022-09-09T06:38:32;16.80;99.90
22436;DHT22;11385;50.822;4.324;2022-09-09T06:40:59;16.90;99.90
22436;DHT22;11385;50.822;4.324;2022-09-09T06:43:26;16.80;99.90
22436;DHT22;11385;50.822;4.324;2022-09-09T06:46:04;16.90;99.90
22436;DHT22;11385;50.822;4.324;2022-09-09T06:48:31;17.00;99.90
22436;DHT22;11385;50.822;4.324;2022-09-09T06:51:18;17.00;99.90
22436;DHT22;11385;50.822;4.324;2022-09-09T06:53:50;17.30;99.90
22436;DHT22;11385;50.822;4.324;2022-09-09T06:56:22;17.40;99.90
22436;DHT22;11385;50.822;4.324;2022-09-09T06:58:50;17.50;99.90
22436;DHT22;11385;50.822;4.324;2022-09-09T07:01:22;17.70;99.90
22436;DHT22;11385;50.822;4.324;2022-09-09T07:03:50;17.50;99.90
22436;DHT22;11385;50.822;4.324;2022-09-09T07:06:22;17.50;99.90
22436;DHT22;11385;50.822;4.324;2022-09-09T07:08:53;17.60;99.90
22436;DHT22;11385;50.822;4.324;2022-09-09T07:11:22;17.60;99.90
22436;DHT22;11385;50.822;4.324;2022-09-09T07:13:49;17.50;99.90
22436;DHT22;11385;50.822;4.324;2022-09-09T07:16:18;17.50;99.90
22436;DHT22;11385;50.822;4.324;2022-09-09T07:18:46;17.60;99.90
22436;DHT22;11385;50.822;4.324;2022-09-09T07:21:14;17.90;99.90
22436;DHT22;11385;50.822;4.324;2022-09-09T07:23:42;17.80;99.90
22436;DHT22;11385;50.822;4.324;2022-09-09T07:26:11;17.80;99.90
22436;DHT22;11385;50.822;4.324;2022-09-09T07:28:39;17.60;99.90
22436;DHT22;11385;50.822;4.324;2022-09-09T07:31:12;17.50;99.90
22436;DHT22;11385;50.822;4.324;2022-09-09T07:33:37;17.40;99.90
22436;DHT22;11385;50.822;4.324;2022-09-09T07:36:07;17.30;99.90
22436;DHT22;11385;50.822;4.324;2022-09-09T07:38:40;17.40;99.90
22436;DHT22;11385;50.822;4.324;2022-09-09T07:41:08;17.40;99.90
22436;DHT22;11385;50.822;4.324;2022-09-09T07:43:39;17.50;99.90
22436;DHT22;11385;50.822;4.324;2022-09-09T07:46:06;17.40;99.90
22436;DHT22;11385;50.822;4.324;2022-09-09T07:48:33;17.40;99.90
22436;DHT22;11385;50.822;4.324;2022-09-09T07:51:11;17.50;99.90
22436;DHT22;11385;50.822;4.324;2022-09-09T07:53:40;17.40;99.90
22436;DHT22;11385;50.822;4.324;2022-09-09T07:56:10;17.30;99.90
22436;DHT22;11385;50.822;4.324;2022-09-09T07:58:37;17.10;99.90
22436;DHT22;11385;50.822;4.324;2022-09-09T08:01:09;17.20;99.90
22436;DHT22;11385;50.822;4.324;2022-09-09T08:03:36;17.20;99.90
22436;DHT22;11385;50.822;4.324;2022-09-09T08:06:05;17.40;99.90
22436;DHT22;11385;50.822;4.324;2022-09-09T08:08:33;17.60;99.90
22436;DHT22;11385;50.822;4.324;2022-09-09T08:11:09;17.80;99.90
22436;DHT22;11385;50.822;4.324;2022-09-09T08:13:36;18.10;99.90
22436;DHT22;11385;50.822;4.324;2022-09-09T08:16:10;18.30;99.90
22436;DHT22;11385;50.822;4.324;2022-09-09T08:18:37;18.50;99.90
22436;DHT22;11385;50.822;4.324;2022-09-09T08:21:10;18.20;99.90
22436;DHT22;11385;50.822;4.324;2022-09-09T08:23:41;18.20;99.90
22436;DHT22;11385;50.822;4.324;2022-09-09T08:26:19;18.30;99.90
22436;DHT22;11385;50.822;4.324;2022-09-09T08:28:49;18.40;99.90
22436;DHT22;11385;50.822;4.324;2022-09-09T08:31:21;18.50;99.90
22436;DHT22;11385;50.822;4.324;2022-09-09T08:33:48;18.40;99.90
22436;DHT22;11385;50.822;4.324;2022-09-09T08:36:18;18.40;99.90
22436;DHT22;11385;50.822;4.324;2022-09-09T08:38:50;18.40;99.90
22436;DHT22;11385;50.822;4.324;2022-09-09T08:41:39;18.20;99.90
22436;DHT22;11385;50.822;4.324;2022-09-09T08:44:16;18.20;99.90
22436;DHT22;11385;50.822;4.324;2022-09-09T08:46:48;18.10;99.90
22436;DHT22;11385;50.822;4.324;2022-09-09T08:49:38;17.80;99.90
22436;DHT22;11385;50.822;4.324;2022-09-09T08:52:09;17.80;99.90
22436;DHT22;11385;50.822;4.324;2022-09-09T08:54:36;17.90;99.90
22436;DHT22;11385;50.822;4.324;2022-09-09T08:57:05;17.80;99.90
22436;DHT22;11385;50.822;4.324;2022-09-09T08:59:33;17.70;99.90
22436;DHT22;11385;50.822;4.324;2022-09-09T09:02:08;17.90;99.90
22436;DHT22;11385;50.822;4.324;2022-09-09T09:04:41;17.90;99.90
22436;DHT22;11385;50.822;4.324;2022-09-09T09:07:17;17.60;99.90
22436;DHT22;11385;50.822;4.324;2022-09-09T09:09:55;17.50;99.90
22436;DHT22;11385;50.822;4.324;2022-09-09T09:12:24;17.70;99.90
22436;DHT22;11385;50.822;4.324;2022-09-09T09:14:52;17.60;99.90
22436;DHT22;11385;50.822;4.324;2022-09-09T09:17:23;17.60;99.90
22436;DHT22;11385;50.822;4.324;2022-09-09T09:19:52;17.70;99.90
22436;DHT22;11385;50.822;4.324;2022-09-09T09:22:28;17.50;99.90
22436;DHT22;11385;50.822;4.324;2022-09-09T09:27:59;17.30;99.90
22436;DHT22;11385;50.822;4.324;2022-09-09T09:30:29;17.30;99.90
22436;DHT22;11385;50.822;4.324;2022-09-09T09:33:02;17.20;99.90
22436;DHT22;11385;50.822;4.324;2022-09-09T09:35:28;17.20;99.90
22436;DHT22;11385;50.822;4.324;2022-09-09T09:37:55;17.10;99.90
22436;DHT22;11385;50.822;4.324;2022-09-09T09:40:22;17.10;99.90
22436;DHT22;11385;50.822;4.324;2022-09-09T09:42:53;17.10;99.90
22436;DHT22;11385;50.822;4.324;2022-09-09T09:45:33;17.00;99.90
22436;DHT22;11385;50.822;4.324;2022-09-09T09:48:03;17.10;99.90
22436;DHT22;11385;50.822;4.324;2022-09-09T09:50:31;17.20;99.90
22436;DHT22;11385;50.822;4.324;2022-09-09T09:53:02;17.40;99.90
22436;DHT22;11385;50.822;4.324;2022-09-09T09:55:32;17.50;99.90
22436;DHT22;11385;50.822;4.324;2022-09-09T09:58:03;17.50;99.90
22436;DHT22;11385;50.822;4.324;2022-09-09T10:00:30;17.50;99.90
22436;DHT22;11385;50.822;4.324;2022-09-09T10:02:59;17.70;99.90
22436;DHT22;11385;50.822;4.324;2022-09-09T10:05:29;17.80;99.90
22436;DHT22;11385;50.822;4.324;2022-09-09T10:08:17;17.70;99.90
22436;DHT22;11385;50.822;4.324;2022-09-09T10:10:52;17.70;99.90
22436;DHT22;11385;50.822;4.324;2022-09-09T10:13:25;17.60;99.90
22436;DHT22;11385;50.822;4.324;2022-09-09T10:16:00;17.70;99.90
22436;DHT22;11385;50.822;4.324;2022-09-09T10:18:51;17.60;99.90
22436;DHT22;11385;50.822;4.324;2022-09-09T10:21:23;17.60;99.90
22436;DHT22;11385;50.822;4.324;2022-09-09T10:24:17;17.90;99.90
22436;DHT22;11385;50.822;4.324;2022-09-09T10:27:19;17.70;99.90
22436;DHT22;11385;50.822;4.324;2022-09-09T10:29:53;18.10;99.90
22436;DHT22;11385;50.822;4.324;2022-09-09T10:32:56;18.30;99.90
22436;DHT22;11385;50.822;4.324;2022-09-09T10:35:10;18.60;99.90
22436;DHT22;11385;50.822;4.324;2022-09-09T10:38:04;18.50;99.90
22436;DHT22;11385;50.822;4.324;2022-09-09T10:40:36;18.80;99.90
22436;DHT22;11385;50.822;4.324;2022-09-09T10:43:19;19.10;99.90
22436;DHT22;11385;50.822;4.324;2022-09-09T10:46:02;19.20;99.90
22436;DHT22;11385;50.822;4.324;2022-09-09T10:48:31;19.20;99.90
22436;DHT22;11385;50.822;4.324;2022-09-09T10:51:10;19.60;99.90
22436;DHT22;11385;50.822;4.324;2022-09-09T10:53:52;19.80;99.90
22436;DHT22;11385;50.822;4.324;2022-09-09T10:56:21;19.80;99.90
22436;DHT22;11385;50.822;4.324;2022-09-09T10:58:54;20.20;99.90
22436;DHT22;11385;50.822;4.324;2022-09-09T11:01:25;20.30;99.90
22436;DHT22;11385;50.822;4.324;2022-09-09T11:03:57;20.30;99.90
22436;DHT22;11385;50.822;4.324;2022-09-09T11:06:29;20.10;99.90
22436;DHT22;11385;50.822;4.324;2022-09-09T11:08:57;20.10;99.90
22436;DHT22;11385;50.822;4.324;2022-09-09T11:11:50;19.90;99.90
22436;DHT22;11385;50.822;4.324;2022-09-09T11:14:28;19.60;99.90
22436;DHT22;11385;50.822;4.324;2022-09-09T11:16:57;19.30;99.90
22436;DHT22;11385;50.822;4.324;2022-09-09T11:19:30;19.10;99.90
22436;DHT22;11385;50.822;4.324;2022-09-09T11:22:00;19.20;99.90
22436;DHT22;11385;50.822;4.324;2022-09-09T11:24:32;19.30;99.90
22436;DHT22;11385;50.822;4.324;2022-09-09T11:27:17;19.20;99.90
22436;DHT22;11385;50.822;4.324;2022-09-09T11:30:19;19.20;99.90
22436;DHT22;11385;50.822;4.324;2022-09-09T11:32:59;19.40;99.90
22436;DHT22;11385;50.822;4.324;2022-09-09T11:38:18;19.30;99.90
22436;DHT22;11385;50.822;4.324;2022-09-09T11:40:45;19.20;99.90
22436;DHT22;11385;50.822;4.324;2022-09-09T11:43:17;19.30;99.90
22436;DHT22;11385;50.822;4.324;2022-09-09T11:45:50;19.30;99.90
22436;DHT22;11385;50.822;4.324;2022-09-09T11:48:25;19.50;99.90
22436;DHT22;11385;50.822;4.324;2022-09-09T11:51:00;19.10;99.90
22436;DHT22;11385;50.822;4.324;2022-09-09T11:53:27;19.40;99.90
22436;DHT22;11385;50.822;4.324;2022-09-09T11:56:01;19.30;99.90
22436;DHT22;11385;50.822;4.324;2022-09-09T11:58:34;19.40;99.90
22436;DHT22;11385;50.822;4.324;2022-09-09T12:01:00;19.20;99.90
22436;DHT22;11385;50.822;4.324;2022-09-09T12:03:41;19.40;99.90
22436;DHT22;11385;50.822;4.324;2022-09-09T12:06:24;19.40;99.90
22436;DHT22;11385;50.822;4.324;2022-09-09T12:08:51;19.40;99.90
22436;DHT22;11385;50.822;4.324;2022-09-09T12:11:26;19.50;99.90
22436;DHT22;11385;50.822;4.324;2022-09-09T12:13:56;19.30;99.90
22436;DHT22;11385;50.822;4.324;2022-09-09T12:16:32;19.40;99.90
22436;DHT22;11385;50.822;4.324;2022-09-09T12:19:16;19.50;99.90
22436;DHT22;11385;50.822;4.324;2022-09-09T12:24:37;19.00;99.90
22436;DHT22;11385;50.822;4.324;2022-09-09T12:27:15;19.10;99.90
22436;DHT22;11385;50.822;4.324;2022-09-09T12:29:47;19.20;99.90
22436;DHT22;11385;50.822;4.324;2022-09-09T12:32:15;19.30;99.90
22436;DHT22;11385;50.822;4.324;2022-09-09T12:34:47;19.70;99.90
22436;DHT22;11385;50.822;4.324;2022-09-09T12:37:40;19.80;99.90
22436;DHT22;11385;50.822;4.324;2022-09-09T12:42:42;19.60;99.90
22436;DHT22;11385;50.822;4.324;2022-09-09T12:45:17;19.70;99.90
22436;DHT22;11385;50.822;4.324;2022-09-09T12:47:53;20.00;99.90
22436;DHT22;11385;50.822;4.324;2022-09-09T12:50:30;19.90;99.90
22436;DHT22;11385;50.822;4.324;2022-09-09T12:53:11;20.20;99.90
22436;DHT22;11385;50.822;4.324;2022-09-09T12:55:49;20.40;99.90
22436;DHT22;11385;50.822;4.324;2022-09-09T12:58:13;20.40;99.90
22436;DHT22;11385;50.822;4.324;2022-09-09T13:00:49;20.10;99.90
22436;DHT22;11385;50.822;4.324;2022-09-09T13:03:18;20.00;99.90
22436;DHT22;11385;50.822;4.324;2022-09-09T13:05:47;20.10;99.90
22436;DHT22;11385;50.822;4.324;2022-09-09T13:08:15;20.10;99.90
22436;DHT22;11385;50.822;4.324;2022-09-09T13:10:49;20.40;99.90
22436;DHT22;11385;50.822;4.324;2022-09-09T13:13:22;20.60;99.90
22436;DHT22;11385;50.822;4.324;2022-09-09T13:15:54;20.80;99.90
22436;DHT22;11385;50.822;4.324;2022-09-09T13:18:23;21.00;99.90
22436;DHT22;11385;50.822;4.324;2022-09-09T13:20:51;20.70;99.90
22436;DHT22;11385;50.822;4.324;2022-09-09T13:23:19;20.80;99.90
22436;DHT22;11385;50.822;4.324;2022-09-09T13:25:53;20.60;99.90
22436;DHT22;11385;50.822;4.324;2022-09-09T13:28:23;20.50;99.90
22436;DHT22;11385;50.822;4.324;2022-09-09T13:31:00;20.40;99.90
22436;DHT22;11385;50.822;4.324;2022-09-09T13:33:33;20.40;99.90
22436;DHT22;11385;50.822;4.324;2022-09-09T13:36:06;20.70;99.90
22436;DHT22;11385;50.822;4.324;2022-09-09T13:38:52;20.60;99.90
22436;DHT22;11385;50.822;4.324;2022-09-09T13:41:10;20.90;99.90
22436;DHT22;11385;50.822;4.324;2022-09-09T13:43:43;21.20;99.90
22436;DHT22;11385;50.822;4.324;2022-09-09T13:48:56;21.50;99.90
22436;DHT22;11385;50.822;4.324;2022-09-09T13:51:32;21.30;99.90
22436;DHT22;11385;50.822;4.324;2022-09-09T13:53:58;21.40;99.90
22436;DHT22;11385;50.822;4.324;2022-09-09T13:56:26;21.40;99.90
22436;DHT22;11385;50.822;4.324;2022-09-09T13:58:53;21.10;99.90
22436;DHT22;11385;50.822;4.324;2022-09-09T14:01:19;21.30;99.90
22436;DHT22;11385;50.822;4.324;2022-09-09T14:03:46;21.30;99.90
22436;DHT22;11385;50.822;4.324;2022-09-09T14:06:13;21.30;99.90
22436;DHT22;11385;50.822;4.324;2022-09-09T14:08:40;21.20;99.90
22436;DHT22;11385;50.822;4.324;2022-09-09T14:11:10;21.00;99.90
22436;DHT22;11385;50.822;4.324;2022-09-09T14:13:38;21.20;99.90
22436;DHT22;11385;50.822;4.324;2022-09-09T14:16:05;21.10;99.90
22436;DHT22;11385;50.822;4.324;2022-09-09T14:18:32;21.10;99.90
22436;DHT22;11385;50.822;4.324;2022-09-09T14:20:59;20.70;99.90
22436;DHT22;11385;50.822;4.324;2022-09-09T14:23:28;20.80;99.90
22436;DHT22;11385;50.822;4.324;2022-09-09T14:25:55;21.00;99.90
22436;DHT22;11385;50.822;4.324;2022-09-09T14:28:22;20.90;99.90
22436;DHT22;11385;50.822;4.324;2022-09-09T14:30:49;20.90;99.90
22436;DHT22;11385;50.822;4.324;2022-09-09T14:33:16;20.80;99.90
22436;DHT22;11385;50.822;4.324;2022-09-09T14:35:43;20.90;99.90
22436;DHT22;11385;50.822;4.324;2022-09-09T14:38:10;21.00;99.90
22436;DHT22;11385;50.822;4.324;2022-09-09T14:40:37;21.40;99.90
22436;DHT22;11385;50.822;4.324;2022-09-09T14:43:05;21.30;99.90
22436;DHT22;11385;50.822;4.324;2022-09-09T14:45:32;21.40;99.90
22436;DHT22;11385;50.822;4.324;2022-09-09T14:47:59;21.60;99.90
22436;DHT22;11385;50.822;4.324;2022-09-09T14:50:26;21.50;99.90
22436;DHT22;11385;50.822;4.324;2022-09-09T14:52:52;21.20;99.90
22436;DHT22;11385;50.822;4.324;2022-09-09T14:55:19;21.30;99.90
22436;DHT22;11385;50.822;4.324;2022-09-09T14:57:47;21.60;99.90
22436;DHT22;11385;50.822;4.324;2022-09-09T15:00:13;21.50;99.90
22436;DHT22;11385;50.822;4.324;2022-09-09T15:02:40;21.50;99.90
22436;DHT22;11385;50.822;4.324;2022-09-09T15:05:07;21.60;99.90
22436;DHT22;11385;50.822;4.324;2022-09-09T15:07:34;21.90;99.90
22436;DHT22;11385;50.822;4.324;2022-09-09T15:10:02;21.70;99.90
22436;DHT22;11385;50.822;4.324;2022-09-09T15:12:29;21.40;99.90
22436;DHT22;11385;50.822;4.324;2022-09-09T15:14:56;21.20;99.90
22436;DHT22;11385;50.822;4.324;2022-09-09T15:17:23;21.20;99.90
22436;DHT22;11385;50.822;4.324;2022-09-09T15:19:51;21.40;99.90
22436;DHT22;11385;50.822;4.324;2022-09-09T15:22:18;21.50;99.90
22436;DHT22;11385;50.822;4.324;2022-09-09T15:24:45;21.60;99.90
22436;DHT22;11385;50.822;4.324;2022-09-09T15:27:11;21.50;99.90
22436;DHT22;11385;50.822;4.324;2022-09-09T15:29:41;21.20;99.90
22436;DHT22;11385;50.822;4.324;2022-09-09T15:32:08;21.20;99.90
22436;DHT22;11385;50.822;4.324;2022-09-09T15:34:34;21.00;99.90
22436;DHT22;11385;50.822;4.324;2022-09-09T15:37:01;20.80;99.90
22436;DHT22;11385;50.822;4.324;2022-09-09T15:39:27;20.60;99.90
22436;DHT22;11385;50.822;4.324;2022-09-09T15:41:54;20.50;99.90
22436;DHT22;11385;50.822;4.324;2022-09-09T15:44:21;20.80;99.90
22436;DHT22;11385;50.822;4.324;2022-09-09T15:46:51;21.00;99.90
22436;DHT22;11385;50.822;4.324;2022-09-09T15:49:22;21.20;99.90
22436;DHT22;11385;50.822;4.324;2022-09-09T15:51:53;21.00;99.90
22436;DHT22;11385;50.822;4.324;2022-09-09T15:54:21;21.00;99.90
22436;DHT22;11385;50.822;4.324;2022-09-09T15:56:55;21.20;99.90
22436;DHT22;11385;50.822;4.324;2022-09-09T15:59:24;21.40;99.90
22436;DHT22;11385;50.822;4.324;2022-09-09T16:01:51;21.50;99.90
22436;DHT22;11385;50.822;4.324;2022-09-09T16:04:19;21.40;99.90
22436;DHT22;11385;50.822;4.324;2022-09-09T16:06:50;21.70;99.90
22436;DHT22;11385;50.822;4.324;2022-09-09T16:09:18;21.30;99.90
22436;DHT22;11385;50.822;4.324;2022-09-09T16:11:45;21.10;99.90
22436;DHT22;11385;50.822;4.324;2022-09-09T16:14:13;20.90;99.90
22436;DHT22;11385;50.822;4.324;2022-09-09T16:16:42;20.90;99.90
22436;DHT22;11385;50.822;4.324;2022-09-09T16:19:11;20.90;99.90
22436;DHT22;11385;50.822;4.324;2022-09-09T16:21:41;20.70;99.90
22436;DHT22;11385;50.822;4.324;2022-09-09T16:24:10;20.40;99.90
22436;DHT22;11385;50.822;4.324;2022-09-09T16:26:39;20.00;99.90